Time;durP1;ratioP1;P1;durP2;ratioP2;P2;SDS_P1;SDS_P2;PMS_P1;PMS_P2;Temp;Humidity;BMP_temperature;BMP_pressure;BME280_temperature;BME280_humidity;BME280_pressure;Samples;Min_cycle;Max_cycle;Signal;HPM_P1;HPM_P2
2022/03/30 00:01:24;;;;;;;22.90;15.32;;;11.30;90.60;;;;;;5115274;28;20012;-75
2022/03/30 00:03:50;;;;;;;26.80;14.90;;;11.30;90.50;;;;;;5114895;28;20119;-76
2022/03/30 00:06:15;;;;;;;29.50;14.15;;;11.30;90.60;;;;;;5115276;28;20053;-79
2022/03/30 00:08:42;;;;;;;22.98;14.75;;;11.40;90.70;;;;;;5115309;28;20051;-79
2022/03/30 00:11:09;;;;;;;25.92;15.38;;;11.40;90.70;;;;;;5114956;28;20016;-76
2022/03/30 00:13:35;;;;;;;21.88;14.65;;;11.40;90.90;;;;;;5115021;28;20023;-76
2022/03/30 00:16:02;;;;;;;27.05;16.95;;;11.40;91.00;;;;;;5114760;28;20019;-76
2022/03/30 00:18:28;;;;;;;23.63;15.27;;;11.40;91.10;;;;;;5114527;28;20028;-75
2022/03/30 00:20:53;;;;;;;23.40;15.73;;;11.40;91.00;;;;;;5115185;28;20016;-76
2022/03/30 00:23:19;;;;;;;25.42;16.13;;;11.40;91.00;;;;;;5114844;28;20055;-75
2022/03/30 00:25:44;;;;;;;30.58;15.85;;;11.40;90.90;;;;;;5096745;28;20023;-76
2022/03/30 00:28:10;;;;;;;27.90;15.82;;;11.40;91.10;;;;;;5114840;28;20027;-77
2022/03/30 00:30:36;;;;;;;27.40;15.43;;;11.40;91.10;;;;;;5096408;28;20035;-75
2022/03/30 00:33:01;;;;;;;26.02;13.73;;;11.50;91.20;;;;;;5114278;28;20381;-75
2022/03/30 00:35:27;;;;;;;23.15;14.32;;;11.50;91.30;;;;;;5114509;28;20370;-76
2022/03/30 00:37:52;;;;;;;24.90;14.50;;;11.50;90.80;;;;;;5114676;28;20137;-77
2022/03/30 00:40:18;;;;;;;20.90;12.85;;;11.60;90.50;;;;;;5114690;28;20023;-76
2022/03/30 00:42:44;;;;;;;20.23;13.57;;;11.70;90.30;;;;;;5114355;28;20077;-76
2022/03/30 00:45:15;;;;;;;25.75;13.95;;;11.70;90.20;;;;;;5114509;28;20435;-76
2022/03/30 00:47:41;;;;;;;20.02;14.05;;;11.60;90.30;;;;;;5114494;28;20084;-76
2022/03/30 00:50:09;;;;;;;26.27;14.40;;;11.60;90.40;;;;;;5114338;28;20513;-75
2022/03/30 00:52:35;;;;;;;20.65;14.15;;;11.60;90.60;;;;;;5095598;28;20027;-75
2022/03/30 00:55:02;;;;;;;25.55;14.18;;;11.50;90.60;;;;;;5114282;28;20024;-76
2022/03/30 00:57:29;;;;;;;22.98;13.50;;;11.50;90.80;;;;;;5114061;28;20015;-75
2022/03/30 00:59:56;;;;;;;20.27;13.50;;;11.50;91.00;;;;;;5095761;28;20442;-76
2022/03/30 01:02:23;;;;;;;21.38;13.70;;;11.50;91.10;;;;;;5113911;28;20028;-76
2022/03/30 01:04:50;;;;;;;26.38;14.68;;;11.50;91.10;;;;;;5095772;28;20034;-76
2022/03/30 01:07:16;;;;;;;26.70;16.02;;;11.50;91.40;;;;;;5113960;28;20062;-76
2022/03/30 01:09:42;;;;;;;23.88;16.13;;;11.60;91.50;;;;;;5113836;28;20055;-74
2022/03/30 01:12:10;;;;;;;24.13;15.27;;;11.60;91.70;;;;;;5113708;28;20024;-76
2022/03/30 01:14:37;;;;;;;22.95;15.38;;;11.60;91.60;;;;;;5095405;28;20513;-76
2022/03/30 01:17:04;;;;;;;22.85;15.65;;;11.70;91.70;;;;;;5113865;28;20024;-75
2022/03/30 01:19:31;;;;;;;32.67;16.40;;;11.70;91.60;;;;;;5114468;28;20023;-75
2022/03/30 01:21:57;;;;;;;26.15;15.15;;;11.70;91.50;;;;;;5115620;28;20370;-75
2022/03/30 01:24:22;;;;;;;24.00;14.70;;;11.70;91.40;;;;;;5114532;28;20031;-76
2022/03/30 01:26:48;;;;;;;28.83;16.02;;;11.70;91.80;;;;;;5113755;28;20020;-76
2022/03/30 01:34:43;;;;;;;21.27;14.65;;;11.70;91.80;;;;;;5113869;28;20464;-75
2022/03/30 01:37:10;;;;;;;16.40;12.93;;;11.70;91.70;;;;;;5114090;28;20047;-76
2022/03/30 01:39:35;;;;;;;24.27;14.35;;;11.70;91.60;;;;;;5114773;28;20092;-75
2022/03/30 01:42:01;;;;;;;23.58;14.02;;;11.70;91.50;;;;;;5112924;28;20516;-76
2022/03/30 01:44:27;;;;;;;24.90;13.90;;;11.70;91.70;;;;;;5113269;28;20019;-75
2022/03/30 01:46:53;;;;;;;20.35;13.48;;;11.70;91.90;;;;;;5113179;28;20030;-76
2022/03/30 01:49:22;;;;;;;26.00;14.30;;;11.70;91.80;;;;;;5113127;28;20396;-75
2022/03/30 01:51:53;;;;;;;31.15;14.30;;;11.70;91.90;;;;;;5113127;28;20084;-76
2022/03/30 01:54:21;;;;;;;24.73;14.23;;;11.70;92.00;;;;;;5114941;28;20041;-76
2022/03/30 01:56:47;;;;;;;24.35;14.25;;;11.70;92.20;;;;;;5116813;28;20032;-75
2022/03/30 01:59:13;;;;;;;23.48;14.55;;;11.60;92.30;;;;;;5116770;28;20084;-75
2022/03/30 02:01:40;;;;;;;25.75;15.35;;;11.60;92.40;;;;;;5113416;28;20034;-75
2022/03/30 02:04:06;;;;;;;19.85;13.27;;;11.60;92.50;;;;;;5095044;28;20035;-75
2022/03/30 02:06:32;;;;;;;23.55;14.23;;;11.60;93.20;;;;;;5094904;28;20094;-75
2022/03/30 02:08:58;;;;;;;26.50;15.30;;;11.50;92.90;;;;;;5113128;28;20485;-75
2022/03/30 02:11:24;;;;;;;20.05;14.07;;;11.50;93.00;;;;;;5112891;28;20053;-75
2022/03/30 02:13:50;;;;;;;24.33;14.98;;;11.50;93.00;;;;;;5094301;28;20024;-77
2022/03/30 02:16:16;;;;;;;29.55;14.75;;;11.60;93.00;;;;;;5113171;28;20183;-74
2022/03/30 02:18:42;;;;;;;24.08;15.85;;;11.70;93.40;;;;;;5112640;28;20070;-75
2022/03/30 02:21:07;;;;;;;24.30;15.65;;;11.90;93.10;;;;;;5112679;28;20032;-77
2022/03/30 02:23:33;;;;;;;26.05;14.73;;;12.10;92.50;;;;;;5112465;28;20064;-77
2022/03/30 02:25:58;;;;;;;23.98;15.43;;;12.20;92.20;;;;;;5112744;28;20397;-75
2022/03/30 02:28:24;;;;;;;25.15;16.40;;;12.00;92.70;;;;;;5112661;28;20023;-75
2022/03/30 02:30:49;;;;;;;22.13;15.57;;;11.80;93.20;;;;;;5112696;28;20024;-75
2022/03/30 02:33:15;;;;;;;20.75;16.00;;;11.60;93.70;;;;;;5094050;28;20290;-75
2022/03/30 02:35:40;;;;;;;22.45;16.33;;;11.60;93.70;;;;;;5112366;28;20106;-76
2022/03/30 02:38:06;;;;;;;26.30;17.30;;;11.50;94.00;;;;;;5094474;28;20031;-76
2022/03/30 02:40:32;;;;;;;23.00;17.00;;;11.40;94.10;;;;;;5094000;28;20027;-76
2022/03/30 02:42:58;;;;;;;20.58;15.27;;;11.50;94.40;;;;;;5112521;28;20519;-76
2022/03/30 02:45:23;;;;;;;29.60;17.77;;;11.40;94.60;;;;;;5094370;28;20024;-75
2022/03/30 02:50:33;;;;;;;26.48;16.20;;;11.40;95.20;;;;;;5112466;28;20562;-75
2022/03/30 02:52:58;;;;;;;26.17;15.68;;;11.30;95.40;;;;;;5112101;28;20028;-76
2022/03/30 02:55:24;;;;;;;23.27;15.65;;;11.30;95.60;;;;;;5112171;28;20080;-75
2022/03/30 02:57:49;;;;;;;29.15;15.98;;;11.30;95.80;;;;;;5094173;28;20023;-76
2022/03/30 03:00:15;;;;;;;20.02;16.17;;;11.30;95.90;;;;;;5112264;28;20054;-76
2022/03/30 03:02:42;;;;;;;22.13;16.35;;;11.30;95.90;;;;;;5111932;28;20034;-75
2022/03/30 03:05:08;;;;;;;25.58;16.45;;;11.30;96.00;;;;;;5112233;28;20498;-75
2022/03/30 03:07:33;;;;;;;23.55;17.00;;;11.20;96.00;;;;;;5112094;28;20149;-76
2022/03/30 03:09:59;;;;;;;28.70;16.67;;;11.20;96.10;;;;;;5112421;28;20019;-74
2022/03/30 03:12:24;;;;;;;26.60;15.45;;;11.20;96.10;;;;;;5112475;28;20393;-76
2022/03/30 03:14:50;;;;;;;24.30;16.73;;;11.20;96.10;;;;;;5112386;28;20027;-76
2022/03/30 03:17:16;;;;;;;24.95;16.27;;;11.30;96.00;;;;;;5112369;28;20024;-76
2022/03/30 03:19:42;;;;;;;23.80;15.07;;;11.30;96.00;;;;;;5077240;28;20020;-76
2022/03/30 03:22:08;;;;;;;24.42;16.17;;;11.30;96.10;;;;;;5111673;28;20492;-75
2022/03/30 03:24:33;;;;;;;23.35;17.60;;;11.30;96.10;;;;;;5093830;28;20102;-76
2022/03/30 03:26:59;;;;;;;23.92;17.65;;;11.30;96.00;;;;;;5093983;28;20034;-76
2022/03/30 03:29:25;;;;;;;27.10;16.05;;;11.40;96.00;;;;;;5093680;28;20027;-76
2022/03/30 03:31:51;;;;;;;28.58;15.48;;;11.40;96.00;;;;;;5111711;28;20110;-76
2022/03/30 03:34:17;;;;;;;20.60;13.77;;;11.50;95.70;;;;;;5111625;28;20111;-75
2022/03/30 03:36:42;;;;;;;21.50;15.65;;;11.50;95.40;;;;;;5093555;28;20020;-75
2022/03/30 03:39:08;;;;;;;25.60;15.45;;;11.40;95.50;;;;;;5111772;28;20028;-75
2022/03/30 03:41:33;;;;;;;23.48;15.13;;;11.40;96.10;;;;;;5111842;28;20520;-76
2022/03/30 03:43:59;;;;;;;27.63;15.73;;;11.50;96.30;;;;;;5093911;28;20068;-76
2022/03/30 03:46:24;;;;;;;23.48;16.35;;;11.40;96.10;;;;;;5111901;28;20054;-75
2022/03/30 03:48:50;;;;;;;23.80;16.73;;;11.40;96.40;;;;;;5111629;28;20027;-76
2022/03/30 03:51:16;;;;;;;25.60;15.40;;;11.40;96.50;;;;;;5111711;28;20024;-76
2022/03/30 03:53:41;;;;;;;20.17;15.52;;;11.30;96.70;;;;;;5115156;28;20084;-76
2022/03/30 03:56:07;;;;;;;26.42;16.85;;;11.30;97.00;;;;;;5115317;28;20469;-76
2022/03/30 03:58:32;;;;;;;30.63;16.48;;;11.30;97.00;;;;;;5115333;28;20020;-76
2022/03/30 04:00:58;;;;;;;26.05;15.00;;;11.30;97.10;;;;;;5115298;28;20285;-76
2022/03/30 04:03:24;;;;;;;23.08;16.17;;;11.30;97.20;;;;;;5115049;28;20028;-76
2022/03/30 04:05:49;;;;;;;26.17;17.35;;;11.40;97.00;;;;;;5115210;28;20031;-75
2022/03/30 04:08:15;;;;;;;25.00;16.30;;;11.40;96.80;;;;;;5096806;28;20016;-75
2022/03/30 04:10:41;;;;;;;28.17;17.10;;;11.40;96.90;;;;;;5115186;28;20028;-76
2022/03/30 04:13:07;;;;;;;30.35;16.58;;;11.40;97.20;;;;;;5115241;28;20489;-75
2022/03/30 04:15:39;;;;;;;25.70;17.83;;;11.60;97.40;;;;;;5117250;28;20417;-75
2022/03/30 04:18:07;;;;;;;30.48;18.55;;;11.60;97.40;;;;;;5117238;28;20721;-76
2022/03/30 04:20:33;;;;;;;30.75;17.55;;;11.70;97.70;;;;;;5114851;28;20023;-75
2022/03/30 04:22:59;;;;;;;34.92;18.42;;;11.70;97.80;;;;;;5114893;28;20541;-76
2022/03/30 04:25:25;;;;;;;25.13;18.48;;;11.50;98.30;;;;;;5115046;28;20070;-77
2022/03/30 04:27:52;;;;;;;32.20;20.63;;;11.40;99.00;;;;;;5114952;28;20020;-76
2022/03/30 04:30:19;;;;;;;26.55;17.38;;;11.30;99.00;;;;;;5114754;28;20027;-75
2022/03/30 04:32:46;;;;;;;25.42;18.35;;;11.30;99.30;;;;;;5114559;28;20035;-76
2022/03/30 04:35:13;;;;;;;28.38;18.77;;;11.30;99.70;;;;;;5114864;28;20027;-76
2022/03/30 04:37:39;;;;;;;36.55;18.17;;;11.30;99.90;;;;;;5114820;28;20016;-76
2022/03/30 04:40:06;;;;;;;25.40;18.55;;;11.20;99.90;;;;;;5115073;28;20023;-76
2022/03/30 04:42:32;;;;;;;28.08;19.27;;;11.20;99.90;;;;;;5095957;28;20065;-75
2022/03/30 04:44:57;;;;;;;30.05;18.83;;;11.20;99.90;;;;;;5096333;28;20032;-77
2022/03/30 04:47:23;;;;;;;29.50;18.35;;;11.20;99.90;;;;;;5114546;28;20077;-76
2022/03/30 04:49:49;;;;;;;22.25;13.93;;;11.20;99.90;;;;;;5096362;28;20023;-77
2022/03/30 04:52:14;;;;;;;26.42;12.15;;;11.20;99.90;;;;;;5095982;28;20020;-76
2022/03/30 04:54:40;;;;;;;25.73;11.35;;;11.20;99.90;;;;;;5114168;28;20032;-76
2022/03/30 04:57:06;;;;;;;21.55;11.73;;;11.40;99.90;;;;;;5114790;28;20058;-76
2022/03/30 04:59:32;;;;;;;27.33;12.27;;;11.40;99.90;;;;;;5114148;28;20020;-76
2022/03/30 05:01:58;;;;;;;24.85;13.02;;;11.30;99.90;;;;;;5113986;28;20477;-76
2022/03/30 05:04:24;;;;;;;26.83;12.77;;;11.10;99.90;;;;;;5113899;28;20028;-76
2022/03/30 05:06:49;;;;;;;24.52;11.07;;;11.00;99.90;;;;;;5113940;28;20541;-75
2022/03/30 05:09:15;;;;;;;30.75;13.82;;;11.00;99.90;;;;;;5095868;28;20494;-77
2022/03/30 05:11:40;;;;;;;25.48;11.13;;;10.90;99.90;;;;;;5114140;28;20080;-76
2022/03/30 05:14:06;;;;;;;34.35;13.57;;;10.90;99.90;;;;;;5095366;28;20114;-76
2022/03/30 05:16:33;;;;;;;32.42;13.52;;;10.80;99.90;;;;;;5095437;28;20023;-75
2022/03/30 05:19:00;;;;;;;28.20;10.38;;;10.70;99.90;;;;;;5095527;28;20160;-76
2022/03/30 05:21:26;;;;;;;24.73;11.23;;;10.60;99.90;;;;;;5095444;28;20020;-75
2022/03/30 05:23:52;;;;;;;27.65;11.68;;;10.60;99.90;;;;;;5113451;28;20118;-76
2022/03/30 05:26:17;;;;;;;27.95;11.75;;;10.60;99.90;;;;;;5095268;28;20023;-76
2022/03/30 05:28:43;;;;;;;27.42;11.27;;;10.60;99.90;;;;;;5113614;28;20030;-77
2022/03/30 05:31:09;;;;;;;24.35;11.60;;;10.60;99.90;;;;;;5114270;28;20028;-75
2022/03/30 05:33:35;;;;;;;25.15;12.10;;;10.50;99.90;;;;;;5113311;28;20015;-75
2022/03/30 05:36:00;;;;;;;26.73;13.95;;;10.40;99.90;;;;;;5113591;28;20020;-77
2022/03/30 05:38:26;;;;;;;27.60;12.15;;;10.40;99.90;;;;;;5113431;28;20024;-76
2022/03/30 05:40:51;;;;;;;25.90;12.55;;;10.30;99.90;;;;;;5113839;28;20032;-76
2022/03/30 05:43:18;;;;;;;23.08;11.02;;;10.20;99.90;;;;;;5096100;28;20449;-75
2022/03/30 05:45:43;;;;;;;26.15;13.05;;;10.30;99.90;;;;;;5113547;28;20020;-76
2022/03/30 05:48:09;;;;;;;23.55;12.65;;;10.30;99.90;;;;;;5113331;28;20496;-75
2022/03/30 05:50:35;;;;;;;22.48;12.57;;;10.20;99.90;;;;;;5113431;28;20034;-76
2022/03/30 05:53:01;;;;;;;32.55;13.68;;;10.30;99.90;;;;;;5112998;28;20035;-77
2022/03/30 05:55:26;;;;;;;31.38;10.85;;;10.20;99.90;;;;;;5095140;28;20058;-76
2022/03/30 05:57:52;;;;;;;31.58;12.52;;;10.20;99.90;;;;;;5113421;28;20028;-74
2022/03/30 06:00:17;;;;;;;22.52;12.00;;;10.20;99.90;;;;;;5094988;28;20351;-76
2022/03/30 06:02:43;;;;;;;26.15;11.70;;;10.20;99.90;;;;;;5113718;28;20385;-76
2022/03/30 06:05:10;;;;;;;24.15;11.60;;;10.20;99.90;;;;;;5113139;28;20032;-76
2022/03/30 06:07:36;;;;;;;24.88;10.98;;;10.20;99.90;;;;;;5113250;28;20397;-76
2022/03/30 06:10:02;;;;;;;26.83;12.55;;;10.10;99.90;;;;;;5094730;28;20457;-76
2022/03/30 06:12:27;;;;;;;26.75;11.77;;;10.20;99.90;;;;;;5112733;28;20024;-75
2022/03/30 06:14:53;;;;;;;19.95;10.77;;;10.20;99.90;;;;;;5112210;28;20480;-75
2022/03/30 06:17:19;;;;;;;17.17;10.80;;;10.10;99.90;;;;;;5113193;28;20024;-76
2022/03/30 06:19:50;;;;;;;27.13;9.95;;;10.10;99.90;;;;;;5113178;28;20027;-78
2022/03/30 06:22:16;;;;;;;30.05;11.13;;;10.20;99.90;;;;;;5113189;28;20016;-76
2022/03/30 06:24:42;;;;;;;20.23;11.65;;;10.20;99.90;;;;;;5113234;28;20397;-75
2022/03/30 06:27:09;;;;;;;26.00;12.30;;;10.20;99.90;;;;;;5095182;28;20110;-77
2022/03/30 06:29:36;;;;;;;35.28;11.57;;;10.20;99.90;;;;;;5096828;28;20513;-76
2022/03/30 06:32:02;;;;;;;21.85;11.48;;;10.30;99.90;;;;;;5113118;28;20103;-76
2022/03/30 06:34:28;;;;;;;24.60;11.25;;;10.40;99.90;;;;;;5113415;28;20062;-76
2022/03/30 06:36:53;;;;;;;20.38;11.27;;;10.60;99.90;;;;;;5112819;28;20020;-75
2022/03/30 06:39:19;;;;;;;25.40;11.65;;;10.60;99.90;;;;;;5112797;28;20051;-75
2022/03/30 06:41:45;;;;;;;32.38;11.40;;;10.50;99.90;;;;;;5112511;28;20536;-75
2022/03/30 06:44:10;;;;;;;26.00;11.60;;;10.40;99.90;;;;;;5113792;28;20540;-77
2022/03/30 06:46:38;;;;;;;31.83;12.57;;;10.50;99.90;;;;;;5113322;28;20076;-77
2022/03/30 06:49:07;;;;;;;25.20;13.18;;;10.60;99.90;;;;;;5112784;28;20019;-76
2022/03/30 06:51:33;;;;;;;25.77;13.45;;;10.50;99.90;;;;;;5112904;28;20035;-75
2022/03/30 06:54:01;;;;;;;27.10;13.82;;;10.40;99.90;;;;;;5113119;28;20032;-78
2022/03/30 06:56:28;;;;;;;34.78;13.55;;;10.30;99.90;;;;;;5114185;28;20047;-75
2022/03/30 06:58:54;;;;;;;27.42;13.07;;;10.40;99.90;;;;;;5097623;28;20019;-75
2022/03/30 07:01:20;;;;;;;34.33;15.35;;;10.60;99.90;;;;;;5116337;28;20016;-75
2022/03/30 07:03:46;;;;;;;26.40;12.90;;;10.40;99.90;;;;;;5116071;28;20088;-76
2022/03/30 07:06:12;;;;;;;26.27;13.77;;;10.40;99.90;;;;;;5113795;28;20424;-75
2022/03/30 07:11:22;;;;;;;32.03;13.48;;;10.50;99.90;;;;;;5113767;28;20039;-76
2022/03/30 07:13:48;;;;;;;26.20;14.10;;;10.40;99.90;;;;;;5095540;28;20024;-76
2022/03/30 07:16:14;;;;;;;32.85;14.45;;;10.30;99.90;;;;;;5113951;28;20487;-76
2022/03/30 07:18:39;;;;;;;33.90;12.95;;;10.40;99.90;;;;;;5113625;28;20051;-76
2022/03/30 07:21:05;;;;;;;32.35;15.45;;;10.40;99.90;;;;;;5112458;28;20491;-76
2022/03/30 07:23:30;;;;;;;34.60;13.93;;;10.40;99.90;;;;;;5093732;28;20410;-76
2022/03/30 07:26:00;;;;;;;27.10;13.57;;;10.40;99.90;;;;;;5095414;28;20024;-76
2022/03/30 07:28:26;;;;;;;31.83;14.98;;;10.50;99.90;;;;;;5116264;28;20469;-77
2022/03/30 07:30:53;;;;;;;33.20;13.57;;;10.60;99.90;;;;;;5116641;28;20032;-76
2022/03/30 07:33:19;;;;;;;35.05;13.32;;;10.70;99.90;;;;;;5116093;28;20473;-75
2022/03/30 07:35:46;;;;;;;27.20;14.30;;;10.80;99.90;;;;;;5116418;28;20039;-75
2022/03/30 07:38:13;;;;;;;34.95;15.07;;;10.90;99.90;;;;;;5098180;28;20020;-76
2022/03/30 07:40:39;;;;;;;34.60;15.85;;;10.90;99.90;;;;;;5098181;28;20521;-76
2022/03/30 07:43:05;;;;;;;26.08;14.07;;;11.10;99.90;;;;;;5115940;28;20066;-76
2022/03/30 07:45:31;;;;;;;28.05;14.48;;;11.30;99.90;;;;;;5116210;28;20055;-75
2022/03/30 07:47:56;;;;;;;30.35;13.18;;;11.30;99.90;;;;;;5117665;28;20028;-77
2022/03/30 07:50:23;;;;;;;29.17;14.38;;;11.10;99.90;;;;;;5097676;28;20050;-76
2022/03/30 07:52:48;;;;;;;21.08;12.43;;;11.10;99.90;;;;;;5097221;28;20028;-76
2022/03/30 07:55:14;;;;;;;28.55;15.25;;;11.10;99.90;;;;;;5115639;28;20016;-75
2022/03/30 07:57:42;;;;;;;35.50;16.27;;;10.90;99.90;;;;;;5115376;28;20054;-77
2022/03/30 08:00:10;;;;;;;28.67;15.10;;;10.80;99.90;;;;;;5097272;28;20015;-76
2022/03/30 08:02:36;;;;;;;29.98;15.93;;;10.80;99.90;;;;;;5096928;28;20027;-76
2022/03/30 08:05:02;;;;;;;30.92;16.42;;;10.70;99.90;;;;;;5115542;28;20043;-76
2022/03/30 08:07:30;;;;;;;32.10;15.68;;;10.70;99.90;;;;;;5115332;28;20047;-75
2022/03/30 08:09:56;;;;;;;27.50;15.77;;;10.60;99.90;;;;;;5116053;28;20080;-76
2022/03/30 08:12:22;;;;;;;27.40;16.20;;;10.60;99.90;;;;;;5115696;28;20034;-75
2022/03/30 08:14:48;;;;;;;30.85;16.20;;;10.60;99.90;;;;;;5097359;28;20118;-75
2022/03/30 08:17:14;;;;;;;34.10;16.83;;;11.00;99.90;;;;;;5096802;28;20111;-75
2022/03/30 08:19:41;;;;;;;30.48;15.90;;;11.20;99.90;;;;;;5096863;28;20164;-75
2022/03/30 08:24:57;;;;;;;29.13;15.50;;;11.40;99.90;;;;;;5115497;28;20027;-77
2022/03/30 08:27:25;;;;;;;27.58;16.60;;;11.20;99.90;;;;;;5097345;28;20546;-77
2022/03/30 08:29:51;;;;;;;26.65;15.52;;;11.20;99.90;;;;;;5097226;28;20031;-76
2022/03/30 08:32:18;;;;;;;27.23;15.10;;;11.20;99.90;;;;;;5097856;28;20374;-75
2022/03/30 08:34:44;;;;;;;36.30;16.83;;;11.20;99.90;;;;;;5097812;28;20024;-75
2022/03/30 08:37:11;;;;;;;32.75;15.30;;;11.20;99.90;;;;;;5116411;28;20039;-75
2022/03/30 08:39:37;;;;;;;25.35;14.90;;;11.20;99.90;;;;;;5115108;28;20485;-75
2022/03/30 08:42:05;;;;;;;26.67;14.77;;;11.20;99.90;;;;;;5118058;28;20031;-75
2022/03/30 08:44:36;;;;;;;33.45;14.98;;;11.00;99.90;;;;;;5118209;28;20080;-75
2022/03/30 08:47:02;;;;;;;29.10;15.38;;;11.10;99.90;;;;;;5098316;28;20043;-75
2022/03/30 08:49:33;;;;;;;29.10;14.02;;;11.10;99.90;;;;;;5117141;28;20477;-77
2022/03/30 08:51:59;;;;;;;23.63;12.55;;;11.30;99.90;;;;;;5117556;28;20031;-76
2022/03/30 08:54:25;;;;;;;25.67;11.70;;;11.30;99.90;;;;;;5114697;28;20035;-75
2022/03/30 08:56:51;;;;;;;16.92;10.75;;;11.10;99.90;;;;;;5114868;28;20039;-75
2022/03/30 08:59:20;;;;;;;25.85;12.45;;;11.00;99.90;;;;;;5114497;28;20035;-76
2022/03/30 09:01:46;;;;;;;25.98;12.18;;;11.00;99.90;;;;;;5114989;28;20019;-74
2022/03/30 09:04:13;;;;;;;22.25;10.57;;;11.10;99.90;;;;;;5096489;28;20028;-76
2022/03/30 09:06:51;;;;;;;28.98;11.73;;;11.10;99.90;;;;;;5096245;28;20020;-75
2022/03/30 09:09:28;;;;;;;26.10;11.32;;;11.10;99.90;;;;;;5114513;28;20031;-76
2022/03/30 09:11:55;;;;;;;30.88;12.93;;;11.10;99.90;;;;;;5114195;28;20119;-76
2022/03/30 09:14:22;;;;;;;26.77;13.27;;;11.20;99.90;;;;;;5113859;28;20329;-74
2022/03/30 09:16:50;;;;;;;29.92;12.32;;;11.30;99.90;;;;;;5114230;28;20063;-75
2022/03/30 09:19:18;;;;;;;31.17;14.77;;;11.30;99.90;;;;;;5095647;28;20019;-75
2022/03/30 09:21:49;;;;;;;28.75;14.25;;;11.60;99.90;;;;;;5113933;28;20485;-76
2022/03/30 09:24:16;;;;;;;;;;;11.60;99.90;;;;;;5114444;28;20058;-75
2022/03/30 09:26:42;;;;;;;28.67;13.98;;;11.90;99.90;;;;;;5114389;28;19947;-75
2022/03/30 09:29:09;;;;;;;25.02;12.88;;;11.90;99.90;;;;;;5114386;28;20102;-77
2022/03/30 09:31:36;;;;;;;32.15;13.93;;;11.80;99.90;;;;;;5095618;28;20554;-75
2022/03/30 09:34:07;;;;;;;30.52;14.65;;;11.70;99.90;;;;;;5113997;28;20028;-75
2022/03/30 09:36:35;;;;;;;29.95;13.00;;;12.00;99.90;;;;;;5095645;28;20024;-75
2022/03/30 09:39:03;;;;;;;25.60;14.38;;;12.00;99.90;;;;;;5113781;28;20491;-76
2022/03/30 09:41:48;;;;;;;26.70;15.07;;;11.90;99.90;;;;;;5095021;28;20020;-76
2022/03/30 09:44:14;;;;;;;31.08;11.23;;;11.80;99.90;;;;;;5113543;28;20549;-76
2022/03/30 09:46:53;;;;;;;27.95;12.02;;;11.50;99.90;;;;;;5095085;28;20141;-76
2022/03/30 09:49:53;;;;;;;26.75;11.85;;;11.40;99.90;;;;;;5112448;28;20027;-76
2022/03/30 09:52:27;;;;;;;22.38;9.25;;;11.40;99.90;;;;;;5095006;28;20405;-76
2022/03/30 09:54:58;;;;;;;32.20;11.13;;;11.40;99.90;;;;;;5094536;28;20088;-76
2022/03/30 09:57:34;;;;;;;21.55;9.15;;;11.40;99.90;;;;;;5112908;28;20026;-78
2022/03/30 10:00:12;;;;;;;19.90;8.63;;;11.40;99.90;;;;;;5112904;28;20023;-77
2022/03/30 10:02:39;;;;;;;23.95;9.07;;;11.50;99.90;;;;;;5094776;28;20047;-76
2022/03/30 10:05:07;;;;;;;20.23;8.93;;;11.40;99.90;;;;;;5115474;28;20023;-77
2022/03/30 10:07:33;;;;;;;19.67;8.70;;;11.50;99.90;;;;;;5095834;28;20138;-76
2022/03/30 10:10:00;;;;;;;24.63;9.98;;;11.40;99.90;;;;;;5113779;28;20521;-75
2022/03/30 10:12:27;;;;;;;15.80;8.27;;;11.50;99.90;;;;;;5113219;28;20024;-76
2022/03/30 10:14:54;;;;;;;16.40;8.23;;;11.50;99.90;;;;;;5113509;28;20427;-77
2022/03/30 10:17:22;;;;;;;18.35;8.27;;;11.50;99.90;;;;;;5112825;28;20072;-77
2022/03/30 10:19:49;;;;;;;16.67;7.35;;;11.50;99.90;;;;;;5112872;28;20484;-76
2022/03/30 10:22:40;;;;;;;18.42;9.02;;;11.50;99.90;;;;;;5112872;28;20034;-79
2022/03/30 10:25:52;;;;;;;12.50;7.45;;;11.60;99.90;;;;;;5095162;28;20020;-76
2022/03/30 10:28:41;;;;;;;13.52;6.85;;;11.50;99.90;;;;;;5112686;28;20096;-76
2022/03/30 10:31:07;;;;;;;16.80;6.93;;;11.50;99.90;;;;;;5113088;28;20496;-77
2022/03/30 10:33:36;;;;;;;15.60;7.25;;;11.50;99.90;;;;;;5112845;28;20456;-77
2022/03/30 10:36:24;;;;;;;18.30;7.25;;;11.50;99.90;;;;;;5112593;28;20452;-77
2022/03/30 10:39:23;;;;;;;18.08;7.05;;;11.50;99.90;;;;;;5094194;28;20020;-75
2022/03/30 10:42:07;;;;;;;19.60;6.93;;;11.60;99.90;;;;;;5112650;28;20015;-77
2022/03/30 10:44:43;;;;;;;19.95;7.63;;;11.80;99.90;;;;;;5113198;28;20029;-76
2022/03/30 10:47:17;;;;;;;13.55;6.78;;;12.00;99.90;;;;;;5112887;28;20020;-78
2022/03/30 10:50:08;;;;;;;18.50;9.07;;;12.30;99.90;;;;;;5112483;28;20019;-77
2022/03/30 10:52:43;;;;;;;13.82;7.13;;;12.60;99.90;;;;;;5112259;28;20031;-77
2022/03/30 10:55:12;;;;;;;21.67;8.35;;;12.60;99.90;;;;;;5113059;28;20024;-76
2022/03/30 10:57:51;;;;;;;16.63;7.95;;;12.50;99.90;;;;;;5112595;28;20023;-76
2022/03/30 11:00:21;;;;;;;13.75;6.82;;;12.40;99.90;;;;;;5094912;28;20035;-77
2022/03/30 11:02:47;;;;;;;17.67;9.18;;;12.20;99.90;;;;;;5116568;28;20532;-77
2022/03/30 11:05:18;;;;;;;19.00;8.00;;;12.10;99.90;;;;;;5115420;28;20111;-77
2022/03/30 11:07:44;;;;;;;21.90;8.90;;;12.00;99.90;;;;;;5116754;28;20026;-77
2022/03/30 11:10:17;;;;;;;14.32;8.25;;;12.00;99.90;;;;;;5116626;28;20129;-76
2022/03/30 11:13:02;;;;;;;16.27;8.60;;;12.00;99.90;;;;;;5116410;28;20483;-77
2022/03/30 11:15:30;;;;;;;22.65;7.57;;;11.90;99.90;;;;;;5116615;28;20023;-77
2022/03/30 11:18:16;;;;;;;18.48;9.10;;;12.00;99.90;;;;;;5098375;28;20111;-76
2022/03/30 11:21:03;;;;;;;22.40;8.40;;;12.00;99.90;;;;;;5116752;28;20016;-76
2022/03/30 11:23:29;;;;;;;14.85;8.50;;;12.00;99.90;;;;;;5116013;28;20020;-76
2022/03/30 11:25:56;;;;;;;18.90;8.82;;;11.80;99.90;;;;;;5098276;28;20020;-76
2022/03/30 11:28:35;;;;;;;12.85;7.85;;;11.70;99.90;;;;;;5098705;28;20122;-77
2022/03/30 11:31:04;;;;;;;20.33;8.95;;;11.60;99.90;;;;;;5098587;28;20055;-74
2022/03/30 11:33:32;;;;;;;31.77;11.10;;;11.60;99.90;;;;;;5116788;28;20024;-77
2022/03/30 11:35:58;;;;;;;33.25;10.95;;;11.60;99.90;;;;;;5120671;28;20015;-79
2022/03/30 11:38:27;;;;;;;22.42;9.88;;;11.60;99.90;;;;;;5117616;28;20090;-75
2022/03/30 11:41:05;;;;;;;19.90;9.52;;;11.70;99.90;;;;;;5116418;28;20043;-76
2022/03/30 11:43:36;;;;;;;16.52;8.25;;;11.90;99.90;;;;;;5115890;28;20497;-76
2022/03/30 11:46:02;;;;;;;12.45;7.60;;;12.10;99.90;;;;;;5099281;28;20401;-77
2022/03/30 11:48:36;;;;;;;16.90;10.15;;;12.20;99.90;;;;;;5117262;28;20383;-77
2022/03/30 11:51:03;;;;;;;15.00;9.38;;;12.20;99.90;;;;;;5115527;28;20058;-77
2022/03/30 11:53:32;;;;;;;22.17;11.32;;;12.20;99.90;;;;;;5115943;28;20024;-77
2022/03/30 11:56:06;;;;;;;23.08;11.07;;;12.00;99.90;;;;;;5115829;28;20019;-75
2022/03/30 11:58:39;;;;;;;16.17;9.50;;;11.90;99.90;;;;;;5117730;28;20026;-76
2022/03/30 12:01:11;;;;;;;16.33;11.55;;;11.90;99.90;;;;;;5097828;28;20111;-76
2022/03/30 12:03:38;;;;;;;23.85;11.48;;;11.80;99.90;;;;;;5116007;28;20157;-76
2022/03/30 12:06:06;;;;;;;17.50;11.90;;;11.80;99.90;;;;;;5115501;28;20023;-76
2022/03/30 12:08:46;;;;;;;20.63;11.02;;;11.70;99.90;;;;;;5115487;28;20020;-76
2022/03/30 12:11:13;;;;;;;22.27;11.77;;;11.80;99.90;;;;;;5115108;28;20024;-77
2022/03/30 12:13:39;;;;;;;24.08;11.88;;;11.80;99.90;;;;;;5096172;28;20103;-75
2022/03/30 12:16:12;;;;;;;20.67;11.77;;;12.00;99.90;;;;;;5116589;28;20077;-79
2022/03/30 12:18:48;;;;;;;21.65;12.30;;;12.10;99.90;;;;;;5115069;28;20481;-75
2022/03/30 12:21:19;;;;;;;20.77;11.82;;;12.10;99.90;;;;;;5114760;28;20385;-76
2022/03/30 12:24:00;;;;;;;21.55;11.30;;;12.10;99.90;;;;;;5115145;28;20023;-77
2022/03/30 12:26:26;;;;;;;23.20;12.25;;;12.10;99.90;;;;;;5096781;28;20020;-77
2022/03/30 12:29:12;;;;;;;19.23;11.52;;;12.10;99.90;;;;;;5115521;28;20538;-76
2022/03/30 12:31:49;;;;;;;21.65;10.82;;;11.90;99.90;;;;;;5096685;28;20034;-76
2022/03/30 12:34:20;;;;;;;16.80;8.82;;;11.80;99.90;;;;;;5114771;28;20024;-76
2022/03/30 12:36:48;;;;;;;13.20;8.23;;;11.60;99.90;;;;;;5096732;28;20023;-76
2022/03/30 12:39:18;;;;;;;13.25;6.18;;;11.40;99.90;;;;;;5096757;28;20388;-75
2022/03/30 12:41:44;;;;;;;7.53;6.43;;;11.10;99.90;;;;;;5096763;28;20015;-76
2022/03/30 12:44:10;;;;;;;7.22;6.57;;;11.00;99.90;;;;;;5114772;28;20489;-76
2022/03/30 12:46:36;;;;;;;7.32;6.45;;;10.70;99.90;;;;;;5114732;28;20107;-75